sensor_id;sensor_type;location;lat;lon;timestamp;temperature;humidity
65752;DHT22;52486;51.098;13.770;2022-09-17T00:01:36;23.50;67.20
65752;DHT22;52486;51.098;13.770;2022-09-17T00:04:02;23.70;67.20
65752;DHT22;52486;51.098;13.770;2022-09-17T00:06:29;23.50;67.30
65752;DHT22;52486;51.098;13.770;2022-09-17T00:08:55;23.40;67.00
65752;DHT22;52486;51.098;13.770;2022-09-17T00:11:22;23.50;67.60
65752;DHT22;52486;51.098;13.770;2022-09-17T00:13:48;23.50;67.40
65752;DHT22;52486;51.098;13.770;2022-09-17T00:16:20;23.40;67.60
65752;DHT22;52486;51.098;13.770;2022-09-17T00:18:46;23.50;67.20
65752;DHT22;52486;51.098;13.770;2022-09-17T00:21:15;23.70;67.40
65752;DHT22;52486;51.098;13.770;2022-09-17T00:23:41;23.70;65.40
65752;DHT22;52486;51.098;13.770;2022-09-17T00:26:07;23.60;67.40
65752;DHT22;52486;51.098;13.770;2022-09-17T00:28:32;23.40;67.60
65752;DHT22;52486;51.098;13.770;2022-09-17T00:30:58;23.40;67.30
65752;DHT22;52486;51.098;13.770;2022-09-17T00:33:23;23.50;67.70
65752;DHT22;52486;51.098;13.770;2022-09-17T00:35:58;23.40;67.50
65752;DHT22;52486;51.098;13.770;2022-09-17T00:38:24;23.40;65.30
65752;DHT22;52486;51.098;13.770;2022-09-17T00:40:50;23.30;67.60
65752;DHT22;52486;51.098;13.770;2022-09-17T00:43:35;23.40;67.30
65752;DHT22;52486;51.098;13.770;2022-09-17T00:46:01;23.40;65.30
65752;DHT22;52486;51.098;13.770;2022-09-17T00:48:27;23.40;67.20
65752;DHT22;52486;51.098;13.770;2022-09-17T00:50:53;23.30;67.30
65752;DHT22;52486;51.098;13.770;2022-09-17T00:53:20;23.50;67.50
65752;DHT22;52486;51.098;13.770;2022-09-17T00:58:21;23.30;65.20
65752;DHT22;52486;51.098;13.770;2022-09-17T01:00:47;23.40;67.40
65752;DHT22;52486;51.098;13.770;2022-09-17T01:03:13;23.40;67.30
65752;DHT22;52486;51.098;13.770;2022-09-17T01:15:58;23.50;65.40
65752;DHT22;52486;51.098;13.770;2022-09-17T01:26:01;23.40;67.70
65752;DHT22;52486;51.098;13.770;2022-09-17T01:31:03;23.50;65.40
65752;DHT22;52486;51.098;13.770;2022-09-17T01:39:17;23.40;66.00
65752;DHT22;52486;51.098;13.770;2022-09-17T01:46:48;23.10;65.30
65752;DHT22;52486;51.098;13.770;2022-09-17T01:49:15;23.40;65.40
65752;DHT22;52486;51.098;13.770;2022-09-17T01:51:43;23.30;67.20
65752;DHT22;52486;51.098;13.770;2022-09-17T01:56:37;23.20;67.70
65752;DHT22;52486;51.098;13.770;2022-09-17T01:59:06;23.40;67.60
65752;DHT22;52486;51.098;13.770;2022-09-17T02:01:33;23.20;67.60
65752;DHT22;52486;51.098;13.770;2022-09-17T02:04:09;23.50;67.40
65752;DHT22;52486;51.098;13.770;2022-09-17T02:06:37;23.50;65.50
65752;DHT22;52486;51.098;13.770;2022-09-17T02:09:05;23.10;67.00
65752;DHT22;52486;51.098;13.770;2022-09-17T02:11:35;23.30;67.50
65752;DHT22;52486;51.098;13.770;2022-09-17T02:14:05;23.40;65.30
65752;DHT22;52486;51.098;13.770;2022-09-17T02:16:31;23.40;67.20
65752;DHT22;52486;51.098;13.770;2022-09-17T02:19:05;23.40;67.70
65752;DHT22;52486;51.098;13.770;2022-09-17T02:21:37;23.30;65.40
65752;DHT22;52486;51.098;13.770;2022-09-17T02:27:01;23.40;65.40
65752;DHT22;52486;51.098;13.770;2022-09-17T02:29:32;23.30;67.20
65752;DHT22;52486;51.098;13.770;2022-09-17T02:31:59;23.30;65.30
65752;DHT22;52486;51.098;13.770;2022-09-17T02:34:24;23.20;67.50
65752;DHT22;52486;51.098;13.770;2022-09-17T02:36:52;23.40;67.50
65752;DHT22;52486;51.098;13.770;2022-09-17T02:39:18;23.30;67.10
65752;DHT22;52486;51.098;13.770;2022-09-17T02:44:20;23.40;65.40
65752;DHT22;52486;51.098;13.770;2022-09-17T02:50:06;23.40;65.40
65752;DHT22;52486;51.098;13.770;2022-09-17T02:52:32;23.40;65.40
65752;DHT22;52486;51.098;13.770;2022-09-17T02:55:11;23.30;65.30
65752;DHT22;52486;51.098;13.770;2022-09-17T03:00:13;23.30;65.40
65752;DHT22;52486;51.098;13.770;2022-09-17T03:02:41;23.40;67.80
65752;DHT22;52486;51.098;13.770;2022-09-17T03:05:09;23.30;67.50
65752;DHT22;52486;51.098;13.770;2022-09-17T03:07:35;23.30;67.20
65752;DHT22;52486;51.098;13.770;2022-09-17T03:10:01;23.20;67.20
65752;DHT22;52486;51.098;13.770;2022-09-17T03:12:26;23.20;67.50
65752;DHT22;52486;51.098;13.770;2022-09-17T03:14:52;23.20;67.40
65752;DHT22;52486;51.098;13.770;2022-09-17T03:17:17;23.40;67.40
65752;DHT22;52486;51.098;13.770;2022-09-17T03:19:43;23.40;67.50
65752;DHT22;52486;51.098;13.770;2022-09-17T03:22:08;23.30;67.20
65752;DHT22;52486;51.098;13.770;2022-09-17T03:24:34;23.40;67.90
65752;DHT22;52486;51.098;13.770;2022-09-17T03:26:59;23.30;67.90
65752;DHT22;52486;51.098;13.770;2022-09-17T03:29:25;23.20;67.70
65752;DHT22;52486;51.098;13.770;2022-09-17T03:31:50;23.40;67.80
65752;DHT22;52486;51.098;13.770;2022-09-17T03:34:16;23.30;67.40
65752;DHT22;52486;51.098;13.770;2022-09-17T03:36:42;23.40;67.30
65752;DHT22;52486;51.098;13.770;2022-09-17T03:39:07;22.90;67.10
65752;DHT22;52486;51.098;13.770;2022-09-17T03:41:33;23.20;67.70
65752;DHT22;52486;51.098;13.770;2022-09-17T03:43:58;23.30;67.50
65752;DHT22;52486;51.098;13.770;2022-09-17T03:46:24;23.30;67.60
65752;DHT22;52486;51.098;13.770;2022-09-17T03:48:49;23.30;67.50
65752;DHT22;52486;51.098;13.770;2022-09-17T03:51:15;23.30;67.50
65752;DHT22;52486;51.098;13.770;2022-09-17T03:53:40;23.20;67.40
65752;DHT22;52486;51.098;13.770;2022-09-17T03:56:06;23.20;67.50
65752;DHT22;52486;51.098;13.770;2022-09-17T03:58:32;23.40;67.30
65752;DHT22;52486;51.098;13.770;2022-09-17T04:00:57;23.10;67.60
65752;DHT22;52486;51.098;13.770;2022-09-17T04:03:23;23.10;67.70
65752;DHT22;52486;51.098;13.770;2022-09-17T04:05:49;24.70;68.40
65752;DHT22;52486;51.098;13.770;2022-09-17T04:08:15;23.20;67.00
65752;DHT22;52486;51.098;13.770;2022-09-17T04:10:42;23.20;67.60
65752;DHT22;52486;51.098;13.770;2022-09-17T04:13:08;23.30;65.40
65752;DHT22;52486;51.098;13.770;2022-09-17T04:15:33;23.20;67.60
65752;DHT22;52486;51.098;13.770;2022-09-17T04:17:59;23.00;67.40
65752;DHT22;52486;51.098;13.770;2022-09-17T04:20:24;23.30;67.40
65752;DHT22;52486;51.098;13.770;2022-09-17T04:22:50;23.30;67.10
65752;DHT22;52486;51.098;13.770;2022-09-17T04:25:16;23.30;67.30
65752;DHT22;52486;51.098;13.770;2022-09-17T04:27:42;23.20;67.40
65752;DHT22;52486;51.098;13.770;2022-09-17T04:30:08;23.00;67.40
65752;DHT22;52486;51.098;13.770;2022-09-17T04:32:33;23.20;67.30
65752;DHT22;52486;51.098;13.770;2022-09-17T04:34:59;23.20;67.60
65752;DHT22;52486;51.098;13.770;2022-09-17T04:37:24;23.20;67.30
65752;DHT22;52486;51.098;13.770;2022-09-17T04:39:50;23.20;67.70
65752;DHT22;52486;51.098;13.770;2022-09-17T04:42:16;23.30;67.20
65752;DHT22;52486;51.098;13.770;2022-09-17T04:44:41;23.20;67.40
65752;DHT22;52486;51.098;13.770;2022-09-17T04:47:07;23.40;67.50
65752;DHT22;52486;51.098;13.770;2022-09-17T04:49:33;23.30;67.20
65752;DHT22;52486;51.098;13.770;2022-09-17T04:51:58;23.20;67.60
65752;DHT22;52486;51.098;13.770;2022-09-17T04:54:24;23.20;67.30
65752;DHT22;52486;51.098;13.770;2022-09-17T04:56:49;23.30;67.50
65752;DHT22;52486;51.098;13.770;2022-09-17T04:59:15;23.20;67.40
65752;DHT22;52486;51.098;13.770;2022-09-17T05:01:40;23.20;67.70
65752;DHT22;52486;51.098;13.770;2022-09-17T05:04:07;23.40;67.40
65752;DHT22;52486;51.098;13.770;2022-09-17T05:06:33;23.10;67.20
65752;DHT22;52486;51.098;13.770;2022-09-17T05:08:59;23.40;67.50
65752;DHT22;52486;51.098;13.770;2022-09-17T05:11:24;23.20;67.20
65752;DHT22;52486;51.098;13.770;2022-09-17T05:13:50;23.20;67.30
65752;DHT22;52486;51.098;13.770;2022-09-17T05:16:15;23.10;67.40
65752;DHT22;52486;51.098;13.770;2022-09-17T05:18:41;23.30;67.60
65752;DHT22;52486;51.098;13.770;2022-09-17T05:21:07;23.20;67.80
65752;DHT22;52486;51.098;13.770;2022-09-17T05:23:32;23.30;67.50
65752;DHT22;52486;51.098;13.770;2022-09-17T05:25:58;23.10;67.70
65752;DHT22;52486;51.098;13.770;2022-09-17T05:28:24;23.10;67.30
65752;DHT22;52486;51.098;13.770;2022-09-17T05:30:50;23.10;67.60
65752;DHT22;52486;51.098;13.770;2022-09-17T05:33:15;23.10;68.00
65752;DHT22;52486;51.098;13.770;2022-09-17T05:35:41;23.20;67.40
65752;DHT22;52486;51.098;13.770;2022-09-17T05:38:09;23.10;67.50
65752;DHT22;52486;51.098;13.770;2022-09-17T05:40:34;23.30;67.40
65752;DHT22;52486;51.098;13.770;2022-09-17T05:43:02;23.20;67.20
65752;DHT22;52486;51.098;13.770;2022-09-17T05:45:28;23.00;67.30
65752;DHT22;52486;51.098;13.770;2022-09-17T05:47:54;23.30;67.50
65752;DHT22;52486;51.098;13.770;2022-09-17T05:50:21;23.30;67.50
65752;DHT22;52486;51.098;13.770;2022-09-17T05:52:46;23.20;67.40
65752;DHT22;52486;51.098;13.770;2022-09-17T05:55:12;23.10;67.20
65752;DHT22;52486;51.098;13.770;2022-09-17T05:57:37;23.10;67.70
65752;DHT22;52486;51.098;13.770;2022-09-17T06:00:03;23.30;67.40
65752;DHT22;52486;51.098;13.770;2022-09-17T06:02:29;23.20;67.00
65752;DHT22;52486;51.098;13.770;2022-09-17T06:04:54;23.10;67.50
65752;DHT22;52486;51.098;13.770;2022-09-17T06:07:20;23.30;67.50
65752;DHT22;52486;51.098;13.770;2022-09-17T06:09:45;23.10;67.50
65752;DHT22;52486;51.098;13.770;2022-09-17T06:12:11;23.10;68.00
65752;DHT22;52486;51.098;13.770;2022-09-17T06:14:36;23.10;67.60
65752;DHT22;52486;51.098;13.770;2022-09-17T06:17:02;23.30;67.50
65752;DHT22;52486;51.098;13.770;2022-09-17T06:19:28;23.10;67.40
65752;DHT22;52486;51.098;13.770;2022-09-17T06:21:53;23.30;67.50
65752;DHT22;52486;51.098;13.770;2022-09-17T06:24:19;23.10;67.60
65752;DHT22;52486;51.098;13.770;2022-09-17T06:26:44;23.10;67.70
65752;DHT22;52486;51.098;13.770;2022-09-17T06:29:10;23.20;67.40
65752;DHT22;52486;51.098;13.770;2022-09-17T06:31:39;23.10;67.20
65752;DHT22;52486;51.098;13.770;2022-09-17T06:34:05;23.10;67.50
65752;DHT22;52486;51.098;13.770;2022-09-17T06:36:30;23.10;67.60
65752;DHT22;52486;51.098;13.770;2022-09-17T06:38:56;23.10;67.40
65752;DHT22;52486;51.098;13.770;2022-09-17T06:41:21;23.10;67.70
65752;DHT22;52486;51.098;13.770;2022-09-17T06:43:47;23.10;67.50
65752;DHT22;52486;51.098;13.770;2022-09-17T06:46:12;23.10;67.70
65752;DHT22;52486;51.098;13.770;2022-09-17T06:48:38;23.10;67.70
65752;DHT22;52486;51.098;13.770;2022-09-17T06:51:04;23.00;67.40
65752;DHT22;52486;51.098;13.770;2022-09-17T06:53:30;23.00;67.20
65752;DHT22;52486;51.098;13.770;2022-09-17T06:55:56;23.30;67.50
65752;DHT22;52486;51.098;13.770;2022-09-17T06:58:23;22.90;67.60
65752;DHT22;52486;51.098;13.770;2022-09-17T07:00:48;23.00;67.60
65752;DHT22;52486;51.098;13.770;2022-09-17T07:03:14;23.10;67.60
65752;DHT22;52486;51.098;13.770;2022-09-17T07:05:41;23.10;67.50
65752;DHT22;52486;51.098;13.770;2022-09-17T07:08:07;23.10;67.30
65752;DHT22;52486;51.098;13.770;2022-09-17T07:10:32;23.30;67.80
65752;DHT22;52486;51.098;13.770;2022-09-17T07:12:58;23.20;67.50
65752;DHT22;52486;51.098;13.770;2022-09-17T07:15:24;23.10;67.80
65752;DHT22;52486;51.098;13.770;2022-09-17T07:17:50;23.00;65.40
65752;DHT22;52486;51.098;13.770;2022-09-17T07:20:16;23.00;67.60
65752;DHT22;52486;51.098;13.770;2022-09-17T07:22:41;23.10;67.30
65752;DHT22;52486;51.098;13.770;2022-09-17T07:25:07;23.10;67.70
65752;DHT22;52486;51.098;13.770;2022-09-17T07:27:33;23.10;66.80
65752;DHT22;52486;51.098;13.770;2022-09-17T07:29:58;23.10;67.60
65752;DHT22;52486;51.098;13.770;2022-09-17T07:32:24;23.10;67.40
65752;DHT22;52486;51.098;13.770;2022-09-17T07:34:50;23.10;67.50
65752;DHT22;52486;51.098;13.770;2022-09-17T07:37:15;23.10;67.90
65752;DHT22;52486;51.098;13.770;2022-09-17T07:39:41;22.90;67.40
65752;DHT22;52486;51.098;13.770;2022-09-17T07:42:07;23.00;68.00
65752;DHT22;52486;51.098;13.770;2022-09-17T07:44:32;23.10;67.70
65752;DHT22;52486;51.098;13.770;2022-09-17T07:46:58;23.10;67.90
65752;DHT22;52486;51.098;13.770;2022-09-17T07:49:23;23.20;67.60
65752;DHT22;52486;51.098;13.770;2022-09-17T07:51:50;23.00;67.40
65752;DHT22;52486;51.098;13.770;2022-09-17T07:54:15;23.10;67.80
65752;DHT22;52486;51.098;13.770;2022-09-17T07:56:41;22.90;67.60
65752;DHT22;52486;51.098;13.770;2022-09-17T07:59:07;23.00;68.00
65752;DHT22;52486;51.098;13.770;2022-09-17T08:01:33;23.00;67.70
65752;DHT22;52486;51.098;13.770;2022-09-17T08:04:00;23.20;67.60
65752;DHT22;52486;51.098;13.770;2022-09-17T08:06:26;23.10;67.20
65752;DHT22;52486;51.098;13.770;2022-09-17T08:08:52;23.10;67.50
65752;DHT22;52486;51.098;13.770;2022-09-17T08:11:20;23.20;67.90
65752;DHT22;52486;51.098;13.770;2022-09-17T08:13:47;23.00;67.40
65752;DHT22;52486;51.098;13.770;2022-09-17T08:16:13;23.00;67.90
65752;DHT22;52486;51.098;13.770;2022-09-17T08:18:39;22.90;68.20
65752;DHT22;52486;51.098;13.770;2022-09-17T08:21:05;23.10;67.40
65752;DHT22;52486;51.098;13.770;2022-09-17T08:23:33;23.30;68.10
65752;DHT22;52486;51.098;13.770;2022-09-17T08:25:59;23.10;67.60
65752;DHT22;52486;51.098;13.770;2022-09-17T08:28:25;23.00;68.00
65752;DHT22;52486;51.098;13.770;2022-09-17T08:30:52;23.10;67.50
65752;DHT22;52486;51.098;13.770;2022-09-17T08:33:17;23.10;67.50
65752;DHT22;52486;51.098;13.770;2022-09-17T08:35:53;23.00;67.90
65752;DHT22;52486;51.098;13.770;2022-09-17T08:38:18;23.20;65.70
65752;DHT22;52486;51.098;13.770;2022-09-17T08:43:32;23.20;67.90
65752;DHT22;52486;51.098;13.770;2022-09-17T08:45:58;23.20;68.00
65752;DHT22;52486;51.098;13.770;2022-09-17T08:48:30;23.10;67.50
65752;DHT22;52486;51.098;13.770;2022-09-17T08:50:58;23.10;65.70
65752;DHT22;52486;51.098;13.770;2022-09-17T08:53:42;23.20;67.50
65752;DHT22;52486;51.098;13.770;2022-09-17T08:56:12;23.10;65.70
65752;DHT22;52486;51.098;13.770;2022-09-17T09:01:51;23.10;65.60
65752;DHT22;52486;51.098;13.770;2022-09-17T09:06:52;23.20;65.60
65752;DHT22;52486;51.098;13.770;2022-09-17T09:09:20;23.20;67.90
65752;DHT22;52486;51.098;13.770;2022-09-17T09:11:47;23.10;67.60
65752;DHT22;52486;51.098;13.770;2022-09-17T09:17:11;23.10;65.50
65752;DHT22;52486;51.098;13.770;2022-09-17T09:19:40;23.10;68.00
65752;DHT22;52486;51.098;13.770;2022-09-17T09:24:56;23.10;65.60
65752;DHT22;52486;51.098;13.770;2022-09-17T09:27:27;23.20;65.60
65752;DHT22;52486;51.098;13.770;2022-09-17T09:32:35;23.30;65.60
65752;DHT22;52486;51.098;13.770;2022-09-17T09:35:02;23.30;65.60
65752;DHT22;52486;51.098;13.770;2022-09-17T09:37:36;23.30;67.70
65752;DHT22;52486;51.098;13.770;2022-09-17T09:40:21;23.50;67.70
65752;DHT22;52486;51.098;13.770;2022-09-17T09:42:47;23.40;66.90
65752;DHT22;52486;51.098;13.770;2022-09-17T09:45:15;23.20;67.20
65752;DHT22;52486;51.098;13.770;2022-09-17T09:47:59;23.40;67.50
65752;DHT22;52486;51.098;13.770;2022-09-17T09:55:47;23.40;65.50
65752;DHT22;52486;51.098;13.770;2022-09-17T09:58:38;23.40;65.40
65752;DHT22;52486;51.098;13.770;2022-09-17T10:01:07;23.20;67.50
65752;DHT22;52486;51.098;13.770;2022-09-17T10:03:35;23.60;67.40
65752;DHT22;52486;51.098;13.770;2022-09-17T10:06:04;23.20;67.10
65752;DHT22;52486;51.098;13.770;2022-09-17T10:08:31;23.50;67.60
65752;DHT22;52486;51.098;13.770;2022-09-17T10:13:35;23.40;65.30
65752;DHT22;52486;51.098;13.770;2022-09-17T10:18:45;23.50;65.10
65752;DHT22;52486;51.098;13.770;2022-09-17T10:21:20;23.50;67.60
65752;DHT22;52486;51.098;13.770;2022-09-17T10:23:46;23.40;65.00
65752;DHT22;52486;51.098;13.770;2022-09-17T10:26:28;23.40;67.00
65752;DHT22;52486;51.098;13.770;2022-09-17T10:28:56;23.60;65.10
65752;DHT22;52486;51.098;13.770;2022-09-17T10:31:22;23.60;67.10
65752;DHT22;52486;51.098;13.770;2022-09-17T10:33:57;23.70;67.20
65752;DHT22;52486;51.098;13.770;2022-09-17T10:36:42;23.60;65.00
65752;DHT22;52486;51.098;13.770;2022-09-17T10:41:55;23.60;64.80
65752;DHT22;52486;51.098;13.770;2022-09-17T10:44:23;23.90;64.70
65752;DHT22;52486;51.098;13.770;2022-09-17T10:46:49;24.00;66.80
65752;DHT22;52486;51.098;13.770;2022-09-17T10:49:27;23.90;66.20
65752;DHT22;52486;51.098;13.770;2022-09-17T10:52:05;23.80;64.40
65752;DHT22;52486;51.098;13.770;2022-09-17T10:57:00;24.00;64.40
65752;DHT22;52486;51.098;13.770;2022-09-17T11:04:49;24.10;64.20
65752;DHT22;52486;51.098;13.770;2022-09-17T11:07:22;24.10;64.10
65752;DHT22;52486;51.098;13.770;2022-09-17T11:15:25;24.40;64.20
65752;DHT22;52486;51.098;13.770;2022-09-17T11:23:59;24.20;63.70
65752;DHT22;52486;51.098;13.770;2022-09-17T11:36:50;24.40;63.50
65752;DHT22;52486;51.098;13.770;2022-09-17T11:39:19;24.40;65.30
65752;DHT22;52486;51.098;13.770;2022-09-17T11:41:46;24.70;65.70
65752;DHT22;52486;51.098;13.770;2022-09-17T11:46:42;24.60;63.60
65752;DHT22;52486;51.098;13.770;2022-09-17T11:51:38;24.50;63.60
65752;DHT22;52486;51.098;13.770;2022-09-17T11:56:43;24.60;63.70
65752;DHT22;52486;51.098;13.770;2022-09-17T12:04:33;24.30;63.70
65752;DHT22;52486;51.098;13.770;2022-09-17T12:07:13;24.60;63.90
65752;DHT22;52486;51.098;13.770;2022-09-17T12:09:41;24.40;63.80
65752;DHT22;52486;51.098;13.770;2022-09-17T12:12:14;24.40;65.90
65752;DHT22;52486;51.098;13.770;2022-09-17T12:17:30;24.50;63.90
65752;DHT22;52486;51.098;13.770;2022-09-17T12:19:58;24.40;63.80
65752;DHT22;52486;51.098;13.770;2022-09-17T12:22:26;24.20;65.60
65752;DHT22;52486;51.098;13.770;2022-09-17T12:24:54;24.20;65.90
65752;DHT22;52486;51.098;13.770;2022-09-17T12:35:13;24.50;63.90
65752;DHT22;52486;51.098;13.770;2022-09-17T12:40:43;24.20;63.80
65752;DHT22;52486;51.098;13.770;2022-09-17T12:48:08;24.10;66.10
65752;DHT22;52486;51.098;13.770;2022-09-17T13:02:09;24.60;63.90
65752;DHT22;52486;51.098;13.770;2022-09-17T13:09:35;24.70;63.60
65752;DHT22;52486;51.098;13.770;2022-09-17T13:12:06;24.50;63.60
65752;DHT22;52486;51.098;13.770;2022-09-17T13:14:45;24.40;65.50
65752;DHT22;52486;51.098;13.770;2022-09-17T13:19:55;24.80;63.60
65752;DHT22;52486;51.098;13.770;2022-09-17T13:22:31;24.50;63.50
65752;DHT22;52486;51.098;13.770;2022-09-17T13:27:27;24.50;63.50
65752;DHT22;52486;51.098;13.770;2022-09-17T13:34:56;24.60;63.60
65752;DHT22;52486;51.098;13.770;2022-09-17T13:37:22;24.20;65.80
65752;DHT22;52486;51.098;13.770;2022-09-17T13:39:51;24.40;65.30
65752;DHT22;52486;51.098;13.770;2022-09-17T13:42:18;24.70;63.80
65752;DHT22;52486;51.098;13.770;2022-09-17T13:47:32;24.30;63.60
65752;DHT22;52486;51.098;13.770;2022-09-17T13:50:03;24.40;63.60
65752;DHT22;52486;51.098;13.770;2022-09-17T13:52:31;24.60;63.80
65752;DHT22;52486;51.098;13.770;2022-09-17T13:54:57;24.40;65.90
65752;DHT22;52486;51.098;13.770;2022-09-17T13:57:23;24.40;65.90
65752;DHT22;52486;51.098;13.770;2022-09-17T13:59:54;24.40;65.50
65752;DHT22;52486;51.098;13.770;2022-09-17T14:04:49;24.60;63.60
65752;DHT22;52486;51.098;13.770;2022-09-17T14:15:02;24.60;63.30
65752;DHT22;52486;51.098;13.770;2022-09-17T14:17:48;24.70;65.00
65752;DHT22;52486;51.098;13.770;2022-09-17T14:20:17;24.70;63.20
65752;DHT22;52486;51.098;13.770;2022-09-17T14:22:43;24.70;65.30
65752;DHT22;52486;51.098;13.770;2022-09-17T14:25:15;24.80;65.30
65752;DHT22;52486;51.098;13.770;2022-09-17T14:30:19;24.80;65.10
65752;DHT22;52486;51.098;13.770;2022-09-17T14:32:47;24.80;62.90
65752;DHT22;52486;51.098;13.770;2022-09-17T14:37:41;24.90;64.80
65752;DHT22;52486;51.098;13.770;2022-09-17T14:40:08;25.00;64.70
65752;DHT22;52486;51.098;13.770;2022-09-17T14:42:34;25.10;64.40
65752;DHT22;52486;51.098;13.770;2022-09-17T14:45:05;24.90;64.70
65752;DHT22;52486;51.098;13.770;2022-09-17T14:47:32;25.00;62.70
65752;DHT22;52486;51.098;13.770;2022-09-17T14:52:47;25.20;62.70
65752;DHT22;52486;51.098;13.770;2022-09-17T14:55:20;25.10;64.30
65752;DHT22;52486;51.098;13.770;2022-09-17T14:57:56;25.30;62.70
65752;DHT22;52486;51.098;13.770;2022-09-17T15:00:23;24.90;62.50
65752;DHT22;52486;51.098;13.770;2022-09-17T15:02:52;25.20;64.20
65752;DHT22;52486;51.098;13.770;2022-09-17T15:07:45;25.00;64.00
65752;DHT22;52486;51.098;13.770;2022-09-17T15:10:12;24.90;64.40
65752;DHT22;52486;51.098;13.770;2022-09-17T15:12:38;24.80;64.20
65752;DHT22;52486;51.098;13.770;2022-09-17T15:15:04;25.00;64.90
65752;DHT22;52486;51.098;13.770;2022-09-17T15:17:29;25.20;64.30
65752;DHT22;52486;51.098;13.770;2022-09-17T15:19:57;25.30;64.80
65752;DHT22;52486;51.098;13.770;2022-09-17T15:22:27;25.20;65.00
65752;DHT22;52486;51.098;13.770;2022-09-17T15:27:23;25.10;62.70
65752;DHT22;52486;51.098;13.770;2022-09-17T15:30:33;25.10;64.80
65752;DHT22;52486;51.098;13.770;2022-09-17T15:32:47;24.80;62.50
65752;DHT22;52486;51.098;13.770;2022-09-17T15:37:43;24.90;64.10
65752;DHT22;52486;51.098;13.770;2022-09-17T15:40:23;25.00;62.60
65752;DHT22;52486;51.098;13.770;2022-09-17T15:43:32;25.00;62.50
65752;DHT22;52486;51.098;13.770;2022-09-17T15:45:38;24.90;62.50
65752;DHT22;52486;51.098;13.770;2022-09-17T15:48:05;24.90;64.30
65752;DHT22;52486;51.098;13.770;2022-09-17T15:50:31;25.30;65.10
65752;DHT22;52486;51.098;13.770;2022-09-17T15:55:37;24.90;64.90
65752;DHT22;52486;51.098;13.770;2022-09-17T15:58:24;24.80;62.50
65752;DHT22;52486;51.098;13.770;2022-09-17T16:00:57;25.00;64.40
65752;DHT22;52486;51.098;13.770;2022-09-17T16:05:59;24.80;64.30
65752;DHT22;52486;51.098;13.770;2022-09-17T16:08:25;25.00;64.90
65752;DHT22;52486;51.098;13.770;2022-09-17T16:10:58;25.10;64.80
65752;DHT22;52486;51.098;13.770;2022-09-17T16:13:23;25.00;65.00
65752;DHT22;52486;51.098;13.770;2022-09-17T16:15:49;24.80;64.60
65752;DHT22;52486;51.098;13.770;2022-09-17T16:18:14;24.80;64.40
65752;DHT22;52486;51.098;13.770;2022-09-17T16:20:40;24.90;64.80
65752;DHT22;52486;51.098;13.770;2022-09-17T16:23:06;24.80;64.90
65752;DHT22;52486;51.098;13.770;2022-09-17T16:25:31;24.70;64.60
65752;DHT22;52486;51.098;13.770;2022-09-17T16:28:01;24.90;64.70
65752;DHT22;52486;51.098;13.770;2022-09-17T16:30:27;24.80;64.80
65752;DHT22;52486;51.098;13.770;2022-09-17T16:32:52;24.90;65.00
65752;DHT22;52486;51.098;13.770;2022-09-17T16:35:19;24.90;64.70
65752;DHT22;52486;51.098;13.770;2022-09-17T16:37:49;24.60;64.60
65752;DHT22;52486;51.098;13.770;2022-09-17T16:40:15;24.70;62.60
65752;DHT22;52486;51.098;13.770;2022-09-17T16:42:41;24.80;64.90
65752;DHT22;52486;51.098;13.770;2022-09-17T16:45:07;24.90;65.00
65752;DHT22;52486;51.098;13.770;2022-09-17T16:47:36;24.50;64.00
65752;DHT22;52486;51.098;13.770;2022-09-17T16:50:03;24.80;62.80
65752;DHT22;52486;51.098;13.770;2022-09-17T16:52:29;24.70;64.90
65752;DHT22;52486;51.098;13.770;2022-09-17T16:54:55;24.80;65.20
65752;DHT22;52486;51.098;13.770;2022-09-17T16:57:20;24.50;64.90
65752;DHT22;52486;51.098;13.770;2022-09-17T16:59:46;24.60;64.80
65752;DHT22;52486;51.098;13.770;2022-09-17T17:02:11;24.60;65.10
65752;DHT22;52486;51.098;13.770;2022-09-17T17:04:37;24.40;65.00
65752;DHT22;52486;51.098;13.770;2022-09-17T17:07:02;24.60;65.20
65752;DHT22;52486;51.098;13.770;2022-09-17T17:09:28;24.50;64.90
65752;DHT22;52486;51.098;13.770;2022-09-17T17:11:54;24.40;65.00
65752;DHT22;52486;51.098;13.770;2022-09-17T17:14:20;24.60;64.90
65752;DHT22;52486;51.098;13.770;2022-09-17T17:16:46;24.40;65.00
65752;DHT22;52486;51.098;13.770;2022-09-17T17:19:11;24.60;65.00
65752;DHT22;52486;51.098;13.770;2022-09-17T17:21:37;24.40;65.10
65752;DHT22;52486;51.098;13.770;2022-09-17T17:24:03;24.60;64.90
65752;DHT22;52486;51.098;13.770;2022-09-17T17:26:28;24.70;65.40
65752;DHT22;52486;51.098;13.770;2022-09-17T17:28:54;24.40;65.40
65752;DHT22;52486;51.098;13.770;2022-09-17T17:31:19;24.30;65.30
65752;DHT22;52486;51.098;13.770;2022-09-17T17:33:45;24.20;65.10
65752;DHT22;52486;51.098;13.770;2022-09-17T17:36:10;24.30;65.20
65752;DHT22;52486;51.098;13.770;2022-09-17T17:38:36;24.50;65.10
65752;DHT22;52486;51.098;13.770;2022-09-17T17:41:06;24.50;65.40
65752;DHT22;52486;51.098;13.770;2022-09-17T17:43:32;24.40;63.20
65752;DHT22;52486;51.098;13.770;2022-09-17T17:45:58;24.00;64.90
65752;DHT22;52486;51.098;13.770;2022-09-17T17:48:23;24.20;65.50
65752;DHT22;52486;51.098;13.770;2022-09-17T17:50:49;24.30;65.40
65752;DHT22;52486;51.098;13.770;2022-09-17T17:53:14;24.40;65.70
65752;DHT22;52486;51.098;13.770;2022-09-17T17:55:40;24.50;65.40
65752;DHT22;52486;51.098;13.770;2022-09-17T17:58:05;24.40;65.70
65752;DHT22;52486;51.098;13.770;2022-09-17T18:00:31;24.40;65.70
65752;DHT22;52486;51.098;13.770;2022-09-17T18:02:56;24.30;66.00
65752;DHT22;52486;51.098;13.770;2022-09-17T18:05:22;24.30;65.60
65752;DHT22;52486;51.098;13.770;2022-09-17T18:07:48;24.40;65.60
65752;DHT22;52486;51.098;13.770;2022-09-17T18:10:14;24.10;66.10
65752;DHT22;52486;51.098;13.770;2022-09-17T18:12:39;24.10;65.20
65752;DHT22;52486;51.098;13.770;2022-09-17T18:15:05;24.30;65.30
65752;DHT22;52486;51.098;13.770;2022-09-17T18:17:31;24.20;64.80
65752;DHT22;52486;51.098;13.770;2022-09-17T18:19:56;24.20;65.80
65752;DHT22;52486;51.098;13.770;2022-09-17T18:22:22;24.20;65.90
65752;DHT22;52486;51.098;13.770;2022-09-17T18:24:48;24.30;66.00
65752;DHT22;52486;51.098;13.770;2022-09-17T18:27:13;24.00;65.30
65752;DHT22;52486;51.098;13.770;2022-09-17T18:29:39;24.20;65.30
65752;DHT22;52486;51.098;13.770;2022-09-17T18:32:05;26.60;67.50
65752;DHT22;52486;51.098;13.770;2022-09-17T18:34:30;24.00;65.50
65752;DHT22;52486;51.098;13.770;2022-09-17T18:36:56;24.20;65.50